createdAt,value
2024-04-09T00:00:54.756Z,37.31
2024-04-09T00:01:54.700Z,37.28
2024-04-09T00:02:54.856Z,37.25
2024-04-09T00:03:54.938Z,37.28
2024-04-09T00:04:54.953Z,37.26
2024-04-09T00:05:54.907Z,37.26
2024-04-09T00:06:54.901Z,37.25
2024-04-09T00:07:54.935Z,37.26
2024-04-09T00:08:55.033Z,37.31
2024-04-09T00:09:55.011Z,37.31
2024-04-09T00:10:55.041Z,37.28
2024-04-09T00:11:55.349Z,37.25
2024-04-09T00:12:55.136Z,37.26
2024-04-09T00:13:55.183Z,37.28
2024-04-09T00:14:55.282Z,37.28
2024-04-09T00:15:55.221Z,37.27
2024-04-09T00:16:55.537Z,37.29
2024-04-09T00:17:55.550Z,37.33
2024-04-09T00:18:55.466Z,37.30
2024-04-09T00:19:55.378Z,37.30
2024-04-09T00:20:55.428Z,37.31
2024-04-09T00:21:55.470Z,37.32
2024-04-09T00:22:55.493Z,37.32
2024-04-09T00:23:55.590Z,37.34
2024-04-09T00:24:55.567Z,37.37
2024-04-09T00:25:55.591Z,37.37
2024-04-09T00:26:55.666Z,37.36
2024-04-09T00:27:55.666Z,37.40
2024-04-09T00:28:55.697Z,37.40
2024-04-09T00:29:55.791Z,37.38
2024-04-09T00:30:55.818Z,37.37
2024-04-09T00:31:55.835Z,37.38
2024-04-09T00:32:55.984Z,37.40
2024-04-09T00:33:56.074Z,37.40
2024-04-09T00:34:55.959Z,37.37
2024-04-09T00:35:55.996Z,37.38
2024-04-09T00:36:56.027Z,37.39
2024-04-09T00:37:56.067Z,37.39
2024-04-09T00:38:56.164Z,37.40
2024-04-09T00:39:56.163Z,37.37
2024-04-09T00:40:56.187Z,37.41
2024-04-09T00:41:56.303Z,37.38
2024-04-09T00:42:56.282Z,37.38
2024-04-09T00:43:56.333Z,37.42
2024-04-09T00:44:56.433Z,37.41
2024-04-09T00:45:56.407Z,37.41
2024-04-09T00:46:56.450Z,37.38
2024-04-09T00:47:56.616Z,37.39
2024-04-09T00:48:56.576Z,37.41
2024-04-09T00:49:56.607Z,37.40
2024-04-09T00:50:56.633Z,37.35
2024-04-09T00:51:56.700Z,37.36
2024-04-09T00:52:56.712Z,37.35
2024-04-09T00:53:56.781Z,37.31
2024-04-09T00:54:56.789Z,37.33
2024-04-09T00:55:56.832Z,37.34
2024-04-09T00:56:56.894Z,37.33
2024-04-09T00:57:56.932Z,37.32
2024-04-09T00:58:56.963Z,37.32
2024-04-09T00:59:57.095Z,37.36
2024-04-09T01:00:57.092Z,37.34
2024-04-09T01:01:57.078Z,37.33
2024-04-09T01:02:57.249Z,37.30
2024-04-09T01:03:57.302Z,37.29
2024-04-09T01:04:57.251Z,37.35
2024-04-09T01:05:57.290Z,37.33
2024-04-09T01:06:57.329Z,37.29
2024-04-09T01:07:57.378Z,37.31
2024-04-09T01:08:57.471Z,37.32
2024-04-09T01:09:57.425Z,37.33
2024-04-09T01:10:57.506Z,37.32
2024-04-09T01:11:57.594Z,37.34
2024-04-09T01:12:57.604Z,37.38
2024-04-09T01:13:57.604Z,37.40
2024-04-09T01:14:57.668Z,37.35
2024-04-09T01:15:57.684Z,37.43
2024-04-09T01:16:57.760Z,37.41
2024-04-09T01:17:57.900Z,37.40
2024-04-09T01:18:57.908Z,37.38
2024-04-09T01:19:57.869Z,37.36
2024-04-09T01:20:58.001Z,37.40
2024-04-09T01:21:57.971Z,37.32
2024-04-09T01:22:58.027Z,37.37
2024-04-09T01:23:58.075Z,37.32
2024-04-09T01:24:58.129Z,37.32
2024-04-09T01:25:58.151Z,37.33
2024-04-09T01:26:58.241Z,37.33
2024-04-09T01:27:58.223Z,37.31
2024-04-09T01:28:58.255Z,37.31
2024-04-09T01:29:58.346Z,37.29
2024-04-09T01:30:58.351Z,37.35
2024-04-09T01:31:58.389Z,37.38
2024-04-09T01:32:58.594Z,37.37
2024-04-09T01:33:58.744Z,37.34
2024-04-09T01:34:58.544Z,37.34
2024-04-09T01:35:58.627Z,37.36
2024-04-09T01:36:58.639Z,37.36
2024-04-09T01:37:58.686Z,37.34
2024-04-09T01:38:58.747Z,37.37
2024-04-09T01:39:58.784Z,37.38
2024-04-09T01:40:58.834Z,37.40
2024-04-09T01:41:58.889Z,37.43
2024-04-09T01:42:58.922Z,37.42
2024-04-09T01:43:58.957Z,37.41
2024-04-09T01:44:59.004Z,37.41
2024-04-09T01:45:59.045Z,37.45
2024-04-09T01:46:59.120Z,37.44
2024-04-09T01:47:59.187Z,37.42
2024-04-09T01:48:59.239Z,37.40
2024-04-09T01:49:59.252Z,37.37
2024-04-09T01:50:59.290Z,37.37
2024-04-09T01:51:59.300Z,37.38
2024-04-09T01:52:59.345Z,37.36
2024-04-09T01:53:59.394Z,37.32
2024-04-09T01:54:59.444Z,37.31
2024-04-09T01:55:59.479Z,37.29
2024-04-09T01:56:59.540Z,37.32
2024-04-09T01:57:59.599Z,37.31
2024-04-09T01:58:59.626Z,37.32
2024-04-09T01:59:59.696Z,37.34
2024-04-09T02:00:59.764Z,37.31
2024-04-09T02:01:59.774Z,37.30
2024-04-09T02:02:59.925Z,37.29
2024-04-09T02:03:59.963Z,37.27
2024-04-09T02:04:59.911Z,37.29
2024-04-09T02:06:00.078Z,37.29
2024-04-09T02:07:00.006Z,37.33
2024-04-09T02:08:00.064Z,37.32
2024-04-09T02:09:00.135Z,37.33
2024-04-09T02:10:00.173Z,37.28
2024-04-09T02:11:00.187Z,37.24
2024-04-09T02:12:00.408Z,37.32
2024-04-09T02:13:00.305Z,37.34
2024-04-09T02:14:00.334Z,37.33
2024-04-09T02:15:00.485Z,37.31
2024-04-09T02:16:00.432Z,37.28
2024-04-09T02:17:00.470Z,37.32
2024-04-09T02:18:00.710Z,37.35
2024-04-09T02:19:00.590Z,37.35
2024-04-09T02:20:00.635Z,37.36
2024-04-09T02:21:00.769Z,37.32
2024-04-09T02:22:00.740Z,37.35
2024-04-09T02:23:00.795Z,37.38
2024-04-09T02:24:00.855Z,37.34
2024-04-09T02:25:00.912Z,37.28
2024-04-09T02:26:00.941Z,37.32
2024-04-09T02:27:01.020Z,37.32
2024-04-09T02:28:01.049Z,37.34
2024-04-09T02:29:01.099Z,37.35
2024-04-09T02:30:01.260Z,37.36
2024-04-09T02:31:01.203Z,37.36
2024-04-09T02:32:01.382Z,37.39
2024-04-09T02:33:01.341Z,37.38
2024-04-09T02:34:01.399Z,37.37
2024-04-09T02:35:01.408Z,37.40
2024-04-09T02:36:01.493Z,37.38
2024-04-09T02:37:01.508Z,37.40
2024-04-09T02:38:01.600Z,37.37
2024-04-09T02:39:01.647Z,37.39
2024-04-09T02:40:01.791Z,37.41
2024-04-09T02:41:01.778Z,37.40
2024-04-09T02:42:01.830Z,37.41
2024-04-09T02:43:01.793Z,37.43
2024-04-09T02:44:01.859Z,37.41
2024-04-09T02:45:01.929Z,37.41
2024-04-09T02:46:02.003Z,37.42
2024-04-09T02:47:02.150Z,37.43
2024-04-09T02:48:02.191Z,37.45
2024-04-09T02:49:02.283Z,37.46
2024-04-09T02:50:02.174Z,37.50
2024-04-09T02:51:02.362Z,37.50
2024-04-09T02:52:02.290Z,37.48
2024-04-09T02:53:02.359Z,37.46
2024-04-09T02:54:02.410Z,37.51
2024-04-09T02:55:02.464Z,37.50
2024-04-09T02:56:02.500Z,37.47
2024-04-09T02:57:02.610Z,37.46
2024-04-09T02:58:02.616Z,37.49
2024-04-09T02:59:02.681Z,37.49
2024-04-09T03:00:02.763Z,37.45
2024-04-09T03:01:02.823Z,37.47
2024-04-09T03:02:02.900Z,37.50
2024-04-09T03:03:02.960Z,37.51
2024-04-09T03:04:03.226Z,37.47
2024-04-09T03:05:03.011Z,37.49
2024-04-09T03:06:03.101Z,37.46
2024-04-09T03:07:03.130Z,37.48
2024-04-09T03:08:03.169Z,37.48
2024-04-09T03:09:03.275Z,37.48
2024-04-09T03:10:03.259Z,37.50
2024-04-09T03:11:03.332Z,37.52
2024-04-09T03:12:03.492Z,37.50
2024-04-09T03:13:03.486Z,37.53
2024-04-09T03:14:03.491Z,37.53
2024-04-09T03:15:03.587Z,37.55
2024-04-09T03:16:03.614Z,37.53
2024-04-09T03:17:03.631Z,37.54
2024-04-09T03:18:03.752Z,37.52
2024-04-09T03:19:03.756Z,37.54
2024-04-09T03:20:03.858Z,37.53
2024-04-09T03:21:03.849Z,37.53
2024-04-09T03:22:03.908Z,37.53
2024-04-09T03:23:03.964Z,37.55
2024-04-09T03:24:04.194Z,37.59
2024-04-09T03:25:04.048Z,37.57
2024-04-09T03:26:04.112Z,37.57
2024-04-09T03:27:04.206Z,37.56
2024-04-09T03:28:04.215Z,37.54
2024-04-09T03:29:04.256Z,37.56
2024-04-09T03:30:04.382Z,37.59
2024-04-09T03:31:04.392Z,37.57
2024-04-09T03:32:04.463Z,37.56
2024-04-09T03:33:04.652Z,37.56
2024-04-09T03:34:04.740Z,37.54
2024-04-09T03:35:04.634Z,37.54
2024-04-09T03:36:04.832Z,37.54
2024-04-09T03:37:04.712Z,37.60
2024-04-09T03:38:04.781Z,37.58
2024-04-09T03:39:04.886Z,37.56
2024-04-09T03:40:04.886Z,37.56
2024-04-09T03:41:04.966Z,37.57
2024-04-09T03:42:05.027Z,37.62
2024-04-09T03:43:05.077Z,37.62
2024-04-09T03:44:05.155Z,37.63
2024-04-09T03:45:05.228Z,37.59
2024-04-09T03:46:05.259Z,37.61
2024-04-09T03:47:05.302Z,37.55
2024-04-09T03:48:05.451Z,37.59
2024-04-09T03:49:05.584Z,37.57
2024-04-09T03:50:05.476Z,37.56
2024-04-09T03:51:05.547Z,37.59
2024-04-09T03:52:05.590Z,37.58
2024-04-09T03:53:05.628Z,37.58
2024-04-09T03:54:05.791Z,37.57
2024-04-09T03:55:05.739Z,37.56
2024-04-09T03:56:05.782Z,37.55
2024-04-09T03:57:05.883Z,37.60
2024-04-09T03:58:05.909Z,37.62
2024-04-09T03:59:05.950Z,37.65
2024-04-09T04:00:06.131Z,37.62
2024-04-09T04:01:09.054Z,37.66
2024-04-09T04:02:06.130Z,37.66
2024-04-09T04:03:06.158Z,37.65
2024-04-09T04:04:06.287Z,37.64
2024-04-09T04:05:06.106Z,37.62
2024-04-09T04:06:06.129Z,37.63
2024-04-09T04:07:06.109Z,37.68
2024-04-09T04:08:06.119Z,37.67
2024-04-09T04:09:06.173Z,37.65
2024-04-09T04:10:07.961Z,37.69
2024-04-09T04:11:06.132Z,37.69
2024-04-09T04:12:06.120Z,37.68
2024-04-09T04:13:06.105Z,37.70
2024-04-09T04:14:06.113Z,37.69
2024-04-09T04:15:06.123Z,37.71
2024-04-09T04:16:06.117Z,37.72
2024-04-09T04:17:06.227Z,37.69
2024-04-09T04:18:06.185Z,37.71
2024-04-09T04:19:06.180Z,37.72
2024-04-09T04:20:06.118Z,37.70
2024-04-09T04:21:08.879Z,37.68
2024-04-09T04:22:06.121Z,37.75
2024-04-09T04:23:06.173Z,37.77
2024-04-09T04:24:06.155Z,37.75
2024-04-09T04:25:06.127Z,37.73
2024-04-09T04:26:06.129Z,37.74
2024-04-09T04:27:06.215Z,37.75
2024-04-09T04:28:06.140Z,37.76
2024-04-09T04:29:06.128Z,37.77
2024-04-09T04:30:06.208Z,37.77
2024-04-09T04:31:06.132Z,37.73
2024-04-09T04:32:13.431Z,37.74
2024-04-09T04:33:13.502Z,37.74
2024-04-09T04:34:13.477Z,37.74
2024-04-09T04:35:13.392Z,37.76
2024-04-09T04:36:16.363Z,37.74
2024-04-09T04:37:13.400Z,37.72
2024-04-09T04:38:13.388Z,37.69
2024-04-09T04:39:13.420Z,37.70
2024-04-09T04:40:13.370Z,37.71
2024-04-09T04:41:13.445Z,37.60
2024-04-09T04:42:13.475Z,37.58
2024-04-09T04:43:13.407Z,37.56
2024-04-09T04:44:13.391Z,37.56
2024-04-09T04:45:13.457Z,37.61
2024-04-09T04:46:13.399Z,37.59
2024-04-09T04:47:13.383Z,37.63
2024-04-09T04:48:13.637Z,37.62
2024-04-09T04:49:13.588Z,37.59
2024-04-09T04:50:13.406Z,37.59
2024-04-09T04:51:13.460Z,37.61
2024-04-09T04:52:13.411Z,37.63
2024-04-09T04:53:13.406Z,37.65
2024-04-09T04:54:13.448Z,37.66
2024-04-09T04:55:13.430Z,37.68
2024-04-09T04:56:13.417Z,37.69
2024-04-09T04:57:13.503Z,37.69
2024-04-09T04:58:13.432Z,37.67
2024-04-09T04:59:13.406Z,37.67
2024-04-09T05:00:13.432Z,37.67
2024-04-09T05:01:13.452Z,37.69
2024-04-09T05:02:13.478Z,37.67
2024-04-09T05:03:13.650Z,37.69
2024-04-09T05:04:13.538Z,37.69
2024-04-09T05:05:13.422Z,37.69
2024-04-09T05:06:13.487Z,37.67
2024-04-09T05:07:13.448Z,37.65
2024-04-09T05:08:13.439Z,37.63
2024-04-09T05:09:13.466Z,37.64
2024-04-09T05:10:13.447Z,37.63
2024-04-09T05:11:13.455Z,37.59
2024-04-09T05:12:13.459Z,37.62
2024-04-09T05:13:13.463Z,37.64
2024-04-09T05:14:13.454Z,37.62
2024-04-09T05:15:13.482Z,37.64
2024-04-09T05:16:13.456Z,37.63
2024-04-09T05:17:13.426Z,37.62
2024-04-09T05:18:13.674Z,37.66
2024-04-09T05:19:13.656Z,37.65
2024-04-09T05:20:13.583Z,37.67
2024-04-09T05:21:13.647Z,37.67
2024-04-09T05:22:13.701Z,37.65
2024-04-09T05:23:13.702Z,37.66
2024-04-09T05:24:13.800Z,37.65
2024-04-09T05:25:13.799Z,37.66
2024-04-09T05:26:13.834Z,37.65
2024-04-09T05:27:13.907Z,37.66
2024-04-09T05:28:14.059Z,37.63
2024-04-09T05:29:14.017Z,37.60
2024-04-09T05:30:14.127Z,37.62
2024-04-09T05:31:14.082Z,37.63
2024-04-09T05:32:14.193Z,37.63
2024-04-09T05:33:14.232Z,37.60
2024-04-09T05:34:14.275Z,37.62
2024-04-09T05:35:14.257Z,37.57
2024-04-09T05:36:14.365Z,37.77
2024-04-09T05:37:14.343Z,37.70
2024-04-09T05:38:14.428Z,37.78
2024-04-09T05:39:14.469Z,37.58
2024-04-09T05:40:14.540Z,37.65
2024-04-09T05:41:14.566Z,37.52
2024-04-09T05:42:14.606Z,37.51
2024-04-09T05:43:15.496Z,37.97
2024-04-09T05:44:14.684Z,38.18
2024-04-09T05:45:14.824Z,38.18
2024-04-09T05:46:14.684Z,38.51
2024-04-09T05:47:14.756Z,38.67
2024-04-09T05:48:15.198Z,38.74
2024-04-09T05:49:14.911Z,39.24
2024-04-09T05:50:14.966Z,39.27
2024-04-09T05:51:14.819Z,39.62
2024-04-09T05:52:14.757Z,40.14
2024-04-09T05:53:14.761Z,40.13
2024-04-09T05:54:14.814Z,40.21
2024-04-09T05:55:14.821Z,40.17
2024-04-09T05:56:14.843Z,40.08
2024-04-09T05:57:14.936Z,39.80
2024-04-09T05:58:14.981Z,39.79
2024-04-09T05:59:14.949Z,39.60
2024-04-09T06:01:15.040Z,39.62
2024-04-09T06:02:14.992Z,39.77
2024-04-09T06:03:15.058Z,39.83
2024-04-09T06:04:17.159Z,39.88
2024-04-09T06:05:14.989Z,39.88
2024-04-09T06:06:15.038Z,39.92
2024-04-09T06:07:14.983Z,39.95
2024-04-09T06:08:15.017Z,39.98
2024-04-09T06:09:15.059Z,40.00
2024-04-09T06:10:15.026Z,39.95
2024-04-09T06:11:15.119Z,39.98
2024-04-09T06:12:15.065Z,39.98
2024-04-09T06:13:15.081Z,40.01
2024-04-09T06:14:15.108Z,40.01
2024-04-09T06:15:15.167Z,40.03
2024-04-09T06:16:15.122Z,40.00
2024-04-09T06:17:15.162Z,40.08
2024-04-09T06:18:15.440Z,40.05
2024-04-09T06:19:16.133Z,40.06
2024-04-09T06:20:15.243Z,40.06
2024-04-09T06:21:15.228Z,40.10
2024-04-09T06:22:15.220Z,40.16
2024-04-09T06:23:15.249Z,40.16
2024-04-09T06:24:15.301Z,40.11
2024-04-09T06:25:15.270Z,40.13
2024-04-09T06:26:15.323Z,40.13
2024-04-09T06:27:15.412Z,40.16
2024-04-09T06:28:15.567Z,40.11
2024-04-09T06:29:15.532Z,40.12
2024-04-09T06:30:15.447Z,40.22
2024-04-09T06:31:15.414Z,40.19
2024-04-09T06:32:15.570Z,40.20
2024-04-09T06:33:16.096Z,40.21
2024-04-09T06:34:15.591Z,40.18
2024-04-09T06:35:15.512Z,40.23
2024-04-09T06:36:25.082Z,40.23
2024-04-09T06:37:16.659Z,40.62
2024-04-09T06:38:15.542Z,40.54
2024-04-09T06:39:15.542Z,40.44
2024-04-09T06:40:15.530Z,40.60
2024-04-09T06:41:15.569Z,40.25
2024-04-09T06:42:15.587Z,39.91
2024-04-09T06:43:15.549Z,39.85
2024-04-09T06:44:15.541Z,40.22
2024-04-09T06:45:15.645Z,39.99
2024-04-09T06:46:15.559Z,39.80
2024-04-09T06:47:15.628Z,40.00
2024-04-09T06:48:15.706Z,40.15
2024-04-09T06:49:16.258Z,40.19
2024-04-09T06:50:15.559Z,40.48
2024-04-09T06:51:15.609Z,40.30
2024-04-09T06:52:15.568Z,40.37
2024-04-09T06:53:15.549Z,40.44
2024-04-09T06:54:15.890Z,40.50
2024-04-09T06:55:15.553Z,40.62
2024-04-09T06:56:15.572Z,40.71
2024-04-09T06:57:15.664Z,41.48
2024-04-09T06:58:15.550Z,41.49
2024-04-09T06:59:15.561Z,41.04
2024-04-09T07:00:15.609Z,41.21
2024-04-09T07:01:15.580Z,41.33
2024-04-09T07:02:15.575Z,41.32
2024-04-09T07:03:15.761Z,41.30
2024-04-09T07:04:16.400Z,41.31
2024-04-09T07:05:15.594Z,41.39
2024-04-09T07:06:15.648Z,41.44
2024-04-09T07:07:15.656Z,41.50
2024-04-09T07:08:15.625Z,41.50
2024-04-09T07:09:15.697Z,41.53
2024-04-09T07:10:15.696Z,41.49
2024-04-09T07:11:15.737Z,41.54
2024-04-09T07:12:15.764Z,41.53
2024-04-09T07:13:15.711Z,41.44
2024-04-09T07:14:15.706Z,41.55
2024-04-09T07:15:15.739Z,41.73
2024-04-09T07:16:15.707Z,41.73
2024-04-09T07:17:15.745Z,41.76
2024-04-09T07:18:15.836Z,41.84
2024-04-09T07:19:15.741Z,42.15
2024-04-09T07:20:15.733Z,41.92
2024-04-09T07:21:15.758Z,41.79
2024-04-09T07:22:15.771Z,42.57
2024-04-09T07:23:15.827Z,41.94
2024-04-09T07:24:15.853Z,41.56
2024-04-09T07:25:15.822Z,41.57
2024-04-09T07:26:15.908Z,41.38
2024-04-09T07:27:15.853Z,42.18
2024-04-09T07:28:15.847Z,42.11
2024-04-09T07:29:15.849Z,41.79
2024-04-09T07:30:15.954Z,41.63
2024-04-09T07:31:15.941Z,41.55
2024-04-09T07:32:15.892Z,41.40
2024-04-09T07:33:16.051Z,41.78
2024-04-09T07:34:15.915Z,42.04
2024-04-09T07:35:15.949Z,41.80
2024-04-09T07:36:16.166Z,41.59
2024-04-09T07:37:15.962Z,41.93
2024-04-09T07:38:15.963Z,42.15
2024-04-09T07:39:16.119Z,40.04
2024-04-09T07:40:16.007Z,38.25
2024-04-09T07:41:16.041Z,37.82
2024-04-09T07:42:16.091Z,37.35
2024-04-09T07:43:16.074Z,36.88
2024-04-09T07:44:16.118Z,36.91
2024-04-09T07:45:16.211Z,36.77
2024-04-09T07:46:16.160Z,36.54
2024-04-09T07:47:16.228Z,36.41
2024-04-09T07:48:16.339Z,36.25
2024-04-09T07:49:16.384Z,36.05
2024-04-09T07:50:16.302Z,36.09
2024-04-09T07:51:16.341Z,36.07
2024-04-09T07:52:16.352Z,35.98
2024-04-09T07:53:16.374Z,35.95
2024-04-09T07:54:16.430Z,35.87
2024-04-09T07:55:16.449Z,35.88
2024-04-09T07:56:16.464Z,35.87
2024-04-09T07:57:16.530Z,35.87
2024-04-09T07:58:16.529Z,36.04
2024-04-09T07:59:16.598Z,35.80
2024-04-09T08:00:16.631Z,35.76
2024-04-09T08:01:16.671Z,35.71
2024-04-09T08:02:16.670Z,35.58
2024-04-09T08:03:16.794Z,35.73
2024-04-09T08:04:16.952Z,35.53
2024-04-09T08:05:16.895Z,35.53
2024-04-09T08:06:16.953Z,35.65
2024-04-09T08:07:17.016Z,35.55
2024-04-09T08:08:17.014Z,35.64
2024-04-09T08:09:17.364Z,35.60
2024-04-09T08:10:17.040Z,35.51
2024-04-09T08:11:17.179Z,35.52
2024-04-09T08:12:17.224Z,35.49
2024-04-09T08:13:17.029Z,35.55
2024-04-09T08:14:16.999Z,35.60
2024-04-09T08:15:17.119Z,35.64
2024-04-09T08:16:17.058Z,35.62
2024-04-09T08:17:17.088Z,35.64
2024-04-09T08:18:17.198Z,35.67
2024-04-09T08:19:17.262Z,35.94
2024-04-09T08:20:17.359Z,35.99
2024-04-09T08:21:18.655Z,36.21
2024-04-09T08:22:17.169Z,36.50
2024-04-09T08:23:17.147Z,36.57
2024-04-09T08:24:17.297Z,36.88
2024-04-09T08:25:17.190Z,37.10
2024-04-09T08:26:17.171Z,37.14
2024-04-09T08:27:17.198Z,37.18
2024-04-09T08:28:17.157Z,37.26
2024-04-09T08:29:17.696Z,37.27
2024-04-09T08:30:17.220Z,37.44
2024-04-09T08:31:17.166Z,37.48
2024-04-09T08:32:17.221Z,37.60
2024-04-09T08:33:17.284Z,37.56
2024-04-09T08:34:17.752Z,37.65
2024-04-09T08:35:17.192Z,37.73
2024-04-09T08:36:17.288Z,37.79
2024-04-09T08:37:17.247Z,37.82
2024-04-09T08:38:17.411Z,37.83
2024-04-09T08:39:17.501Z,37.87
2024-04-09T08:40:17.347Z,37.91
2024-04-09T08:41:17.199Z,37.95
2024-04-09T08:42:17.214Z,38.16
2024-04-09T08:43:17.429Z,38.25
2024-04-09T08:44:17.188Z,38.14
2024-04-09T08:46:17.306Z,38.63
2024-04-09T08:47:17.225Z,39.02
2024-04-09T08:48:17.576Z,39.19
2024-04-09T08:49:17.851Z,39.22
2024-04-09T08:50:18.078Z,39.58
2024-04-09T08:51:17.821Z,39.02
2024-04-09T08:52:17.231Z,38.73
2024-04-09T08:53:17.198Z,38.47
2024-04-09T08:54:17.265Z,38.42
2024-04-09T08:55:21.157Z,38.31
2024-04-09T08:56:17.202Z,38.51
2024-04-09T08:57:17.256Z,38.33
2024-04-09T08:58:17.205Z,38.34
2024-04-09T08:59:17.614Z,38.62
2024-04-09T09:00:17.212Z,38.62
2024-04-09T09:01:17.364Z,38.48
2024-04-09T09:02:17.207Z,38.45
2024-04-09T09:03:17.436Z,38.30
2024-04-09T09:04:17.398Z,38.31
2024-04-09T09:05:17.310Z,38.16
2024-04-09T09:06:17.314Z,38.47
2024-04-09T09:07:17.233Z,38.39
2024-04-09T09:08:17.234Z,38.33
2024-04-09T09:09:17.672Z,38.05
2024-04-09T09:10:17.234Z,38.03
2024-04-09T09:11:17.652Z,37.99
2024-04-09T09:12:17.445Z,37.92
2024-04-09T09:13:17.502Z,38.26
2024-04-09T09:14:17.482Z,38.19
2024-04-09T09:15:17.659Z,38.38
2024-04-09T09:16:17.668Z,38.53
2024-04-09T09:17:17.660Z,38.62
2024-04-09T09:18:17.773Z,38.50
2024-04-09T09:19:17.861Z,38.65
2024-04-09T09:20:18.068Z,38.51
2024-04-09T09:21:17.930Z,38.63
2024-04-09T09:22:17.925Z,38.63
2024-04-09T09:23:17.993Z,38.56
2024-04-09T09:24:18.079Z,38.45
2024-04-09T09:25:18.084Z,38.61
2024-04-09T09:26:18.658Z,38.72
2024-04-09T09:27:18.231Z,38.74
2024-04-09T09:28:18.234Z,38.65
2024-04-09T09:29:18.628Z,38.65
2024-04-09T09:30:18.392Z,38.66
2024-04-09T09:31:18.466Z,38.80
2024-04-09T09:32:18.502Z,39.26
2024-04-09T09:33:18.536Z,39.19
2024-04-09T09:34:18.542Z,39.34
2024-04-09T09:35:18.586Z,39.26
2024-04-09T09:36:18.639Z,39.22
2024-04-09T09:37:18.676Z,39.28
2024-04-09T09:38:18.712Z,39.33
2024-04-09T09:39:18.803Z,39.46
2024-04-09T09:40:18.792Z,39.44
2024-04-09T09:41:18.799Z,39.54
2024-04-09T09:42:18.841Z,39.62
2024-04-09T09:43:18.930Z,39.74
2024-04-09T09:44:18.879Z,39.88
2024-04-09T09:45:18.929Z,39.99
2024-04-09T09:46:18.904Z,39.92
2024-04-09T09:47:18.947Z,39.98
2024-04-09T09:48:19.082Z,40.17
2024-04-09T09:49:20.226Z,40.27
2024-04-09T09:50:19.749Z,40.39
2024-04-09T09:51:19.099Z,40.43
2024-04-09T09:52:18.961Z,40.42
2024-04-09T09:53:19.197Z,40.51
2024-04-09T09:54:19.389Z,40.61
2024-04-09T09:55:19.113Z,40.59
2024-04-09T09:56:19.003Z,40.80
2024-04-09T09:57:19.102Z,40.86
2024-04-09T09:58:19.021Z,40.89
2024-04-09T09:59:19.033Z,41.22
2024-04-09T10:00:19.051Z,41.37
2024-04-09T10:01:19.301Z,41.20
2024-04-09T10:02:19.050Z,41.16
2024-04-09T10:03:19.151Z,41.31
2024-04-09T10:04:19.468Z,41.46
2024-04-09T10:05:19.183Z,41.45
2024-04-09T10:06:19.256Z,41.48
2024-04-09T10:07:19.152Z,41.93
2024-04-09T10:08:19.148Z,42.12
2024-04-09T10:09:19.222Z,42.25
2024-04-09T10:10:19.182Z,42.23
2024-04-09T10:11:19.274Z,42.17
2024-04-09T10:12:19.281Z,42.23
2024-04-09T10:13:19.242Z,42.41
2024-04-09T10:14:19.250Z,42.41
2024-04-09T10:15:19.443Z,42.61
2024-04-09T10:16:19.372Z,42.64
2024-04-09T10:17:19.474Z,42.75
2024-04-09T10:18:19.729Z,42.74
2024-04-09T10:19:19.615Z,42.88
2024-04-09T10:20:19.622Z,43.07
2024-04-09T10:21:19.692Z,43.04
2024-04-09T10:22:19.741Z,42.96
2024-04-09T10:23:19.793Z,42.91
2024-04-09T10:24:20.164Z,42.97
2024-04-09T10:25:19.951Z,43.53
2024-04-09T10:26:19.985Z,43.50
2024-04-09T10:27:20.101Z,43.31
2024-04-09T10:28:20.179Z,43.28
2024-04-09T10:29:20.703Z,43.22
2024-04-09T10:30:20.277Z,42.96
2024-04-09T10:31:20.313Z,42.86
2024-04-09T10:32:20.359Z,42.85
2024-04-09T10:33:20.442Z,42.67
2024-04-09T10:34:28.045Z,42.60
2024-04-09T10:35:20.363Z,42.50
2024-04-09T10:36:20.443Z,42.49
2024-04-09T10:37:20.362Z,42.62
2024-04-09T10:38:20.391Z,42.66
2024-04-09T10:39:20.467Z,42.99
2024-04-09T10:40:20.374Z,42.91
2024-04-09T10:41:20.367Z,42.90
2024-04-09T10:42:20.390Z,42.87
2024-04-09T10:43:20.366Z,42.92
2024-04-09T10:44:20.691Z,42.90
2024-04-09T10:45:20.412Z,42.90
2024-04-09T10:46:20.527Z,42.89
2024-04-09T10:47:20.487Z,42.83
2024-04-09T10:48:20.477Z,41.64
2024-04-09T10:49:20.798Z,41.69
2024-04-09T10:50:20.494Z,41.55
2024-04-09T10:51:22.601Z,41.16
2024-04-09T10:52:20.386Z,41.06
2024-04-09T10:53:20.416Z,40.88
2024-04-09T10:54:20.405Z,40.29
2024-04-09T10:55:20.376Z,40.30
2024-04-09T10:56:20.380Z,39.97
2024-04-09T10:57:21.607Z,40.07
2024-04-09T10:58:20.388Z,39.83
2024-04-09T10:59:20.420Z,39.66
2024-04-09T11:00:20.438Z,39.53
2024-04-09T11:01:20.411Z,39.29
2024-04-09T11:02:20.433Z,37.01
2024-04-09T11:03:22.659Z,35.85
2024-04-09T11:04:20.864Z,35.02
2024-04-09T11:05:20.445Z,35.04
2024-04-09T11:06:20.415Z,35.31
2024-04-09T11:07:20.399Z,35.02
2024-04-09T11:08:20.405Z,33.14
2024-04-09T11:09:20.459Z,32.60
2024-04-09T11:10:20.515Z,33.12
2024-04-09T11:11:20.478Z,33.11
2024-04-09T11:12:20.447Z,31.15
2024-04-09T11:13:20.397Z,29.19
2024-04-09T11:14:20.402Z,29.30
2024-04-09T11:15:20.525Z,28.25
2024-04-09T11:16:20.402Z,29.13
2024-04-09T11:17:20.583Z,28.55
2024-04-09T11:18:20.654Z,29.52
2024-04-09T11:19:20.537Z,29.91
2024-04-09T11:20:20.436Z,30.04
2024-04-09T11:21:20.471Z,30.30
2024-04-09T11:22:20.416Z,30.37
2024-04-09T11:23:20.412Z,30.50
2024-04-09T11:24:20.715Z,30.57
2024-04-09T11:25:22.310Z,30.52
2024-04-09T11:26:20.428Z,30.36
2024-04-09T11:27:20.461Z,30.02
2024-04-09T11:28:20.419Z,30.13
2024-04-09T11:29:20.435Z,30.46
2024-04-09T11:30:20.482Z,30.22
2024-04-09T11:31:22.355Z,30.13
2024-04-09T11:32:20.419Z,30.07
2024-04-09T11:33:20.627Z,30.10
2024-04-09T11:34:20.498Z,30.14
2024-04-09T11:35:20.495Z,30.16
2024-04-09T11:36:27.529Z,30.33
2024-04-09T11:37:21.985Z,30.44
2024-04-09T11:38:20.431Z,30.35
2024-04-09T11:39:20.482Z,30.41
2024-04-09T11:40:20.453Z,30.43
2024-04-09T11:41:20.435Z,30.48
2024-04-09T11:42:20.514Z,30.55
2024-04-09T11:43:20.454Z,30.71
2024-04-09T11:44:20.448Z,30.52
2024-04-09T11:45:20.453Z,30.62
2024-04-09T11:46:20.446Z,30.58
2024-04-09T11:47:20.523Z,30.56
2024-04-09T11:48:20.570Z,30.56
2024-04-09T11:49:20.512Z,30.64
2024-04-09T11:50:20.471Z,30.73
2024-04-09T11:51:20.459Z,30.66
2024-04-09T11:52:20.479Z,30.59
2024-04-09T11:53:22.498Z,30.60
2024-04-09T11:54:20.528Z,30.66
2024-04-09T11:55:22.581Z,30.71
2024-04-09T11:56:20.472Z,30.74
2024-04-09T11:57:20.524Z,30.72
2024-04-09T11:58:20.476Z,30.74
2024-04-09T11:59:20.477Z,30.75
2024-04-09T12:00:20.536Z,30.79
2024-04-09T12:01:20.602Z,30.80
2024-04-09T12:02:20.531Z,30.82
2024-04-09T12:03:20.550Z,30.82
2024-04-09T12:04:20.614Z,30.91
2024-04-09T12:05:20.519Z,30.97
2024-04-09T12:06:20.505Z,30.94
2024-04-09T12:07:20.532Z,30.98
2024-04-09T12:08:20.497Z,30.95
2024-04-09T12:09:20.577Z,30.95
2024-04-09T12:10:20.481Z,30.95
2024-04-09T12:11:22.424Z,30.92
2024-04-09T12:12:20.541Z,30.98
2024-04-09T12:13:20.493Z,30.97
2024-04-09T12:14:20.540Z,31.01
2024-04-09T12:15:20.757Z,31.02
2024-04-09T12:16:20.495Z,31.02
2024-04-09T12:17:22.032Z,31.08
2024-04-09T12:18:20.629Z,31.08
2024-04-09T12:19:20.566Z,31.20
2024-04-09T12:20:20.831Z,31.91
2024-04-09T12:21:20.589Z,32.09
2024-04-09T12:22:20.539Z,31.73
2024-04-09T12:23:22.025Z,32.39
2024-04-09T12:24:20.681Z,33.58
2024-04-09T12:25:20.650Z,35.54
2024-04-09T12:26:20.761Z,34.48
2024-04-09T12:27:20.729Z,33.12
2024-04-09T12:28:20.743Z,33.57
2024-04-09T12:29:22.331Z,38.42
2024-04-09T12:30:20.860Z,38.40
2024-04-09T12:31:21.783Z,39.53
2024-04-09T12:32:20.874Z,37.01
2024-04-09T12:33:21.035Z,35.90
2024-04-09T12:34:21.105Z,36.20
2024-04-09T12:35:22.903Z,36.90
2024-04-09T12:36:21.024Z,37.31
2024-04-09T12:37:21.014Z,37.39
2024-04-09T12:38:21.076Z,37.49
2024-04-09T12:39:21.130Z,37.49
2024-04-09T12:40:21.116Z,37.57
2024-04-09T12:41:23.304Z,37.72
2024-04-09T12:42:21.207Z,37.77
2024-04-09T12:43:21.137Z,37.77
2024-04-09T12:44:21.155Z,37.71
2024-04-09T12:45:21.203Z,37.59
2024-04-09T12:46:21.147Z,37.48
2024-04-09T12:47:22.243Z,37.38
2024-04-09T12:48:21.262Z,37.36
2024-04-09T12:49:27.938Z,37.31
2024-04-09T12:50:22.315Z,37.24
2024-04-09T12:51:21.191Z,37.07
2024-04-09T12:52:21.157Z,36.97
2024-04-09T12:53:21.153Z,36.83
2024-04-09T12:54:21.215Z,36.77
2024-04-09T12:55:21.148Z,36.65